Time;durP1;ratioP1;P1;durP2;ratioP2;P2;SDS_P1;SDS_P2;PMS_P1;PMS_P2;Temp;Humidity;BMP_temperature;BMP_pressure;BME280_temperature;BME280_humidity;BME280_pressure;Samples;Min_cycle;Max_cycle;Signal;HPM_P1;HPM_P2
2024/01/24 00:02:13;;;;;;;;;;;27.20;99.90;;;;;;5019406;28;20340;-69
2024/01/24 00:04:40;;;;;;;;;;;27.20;99.90;;;;;;5020312;28;20366;-68
2024/01/24 00:07:07;;;;;;;;;;;27.30;99.90;;;;;;5013448;28;19916;-68
2024/01/24 00:09:33;;;;;;;;;;;27.30;99.90;;;;;;5013235;28;20012;-67
2024/01/24 00:12:00;;;;;;;;;;;27.40;99.90;;;;;;4998697;28;19917;-68
2024/01/24 00:14:27;;;;;;;;;;;27.40;99.90;;;;;;5027747;28;19916;-70
2024/01/24 00:16:53;;;;;;;;;;;27.60;99.90;;;;;;5012199;28;20358;-69
2024/01/24 00:19:20;;;;;;;;;;;27.70;99.90;;;;;;5013840;28;19967;-69
2024/01/24 00:21:46;;;;;;;;;;;27.80;99.90;;;;;;5012764;28;19964;-71
2024/01/24 00:24:13;;;;;;;;;;;27.90;98.90;;;;;;5013427;28;19960;-71
2024/01/24 00:26:40;;;;;;;;;;;28.00;98.70;;;;;;5012318;28;20397;-66
2024/01/24 00:29:06;;;;;;;;;;;28.10;98.40;;;;;;5013552;28;19916;-70
2024/01/24 00:31:33;;;;;;;;;;;28.20;98.50;;;;;;5014476;28;19917;-72
2024/01/24 00:34:00;;;;;;;;;;;28.40;98.20;;;;;;5020371;28;19917;-71
2024/01/24 00:36:26;;;;;;;;;;;28.50;97.90;;;;;;5032649;28;19920;-71
2024/01/24 00:38:53;;;;;;;;;;;28.60;97.40;;;;;;5032871;28;19912;-70
2024/01/24 00:41:20;;;;;;;;;;;28.60;97.70;;;;;;5033061;28;19917;-70
2024/01/24 00:43:46;;;;;;;;;;;28.60;97.60;;;;;;5032103;28;19964;-72
2024/01/24 00:46:13;;;;;;;;;;;28.80;98.40;;;;;;5032682;28;19959;-69
2024/01/24 00:48:39;;;;;;;;;;;28.90;98.40;;;;;;5027912;28;19939;-66
2024/01/24 00:51:06;;;;;;;;;;;29.00;98.30;;;;;;5027212;28;19995;-69
2024/01/24 00:53:34;;;;;;;;;;;29.10;98.60;;;;;;5016900;28;19919;-68
2024/01/24 00:56:01;;;;;;;;;;;29.30;98.90;;;;;;5030568;28;19921;-67
2024/01/24 00:58:28;;;;;;;;;;;29.50;98.80;;;;;;5043350;28;19913;-70
2024/01/24 01:00:55;;;;;;;;;;;29.50;99.40;;;;;;5052400;28;19924;-65
2024/01/24 01:03:22;;;;;;;;;;;29.60;99.10;;;;;;5050010;28;19974;-69
2024/01/24 01:05:48;;;;;;;;;;;29.50;99.10;;;;;;5015342;28;19913;-71
2024/01/24 01:08:15;;;;;;;;;;;29.60;99.60;;;;;;5026819;28;19928;-71
2024/01/24 01:10:41;;;;;;;;;;;29.70;98.50;;;;;;5022460;28;19914;-74
2024/01/24 01:13:08;;;;;;;;;;;29.70;97.90;;;;;;5021014;28;19914;-70
2024/01/24 01:15:35;;;;;;;;;;;29.90;98.00;;;;;;5023597;28;20369;-65
2024/01/24 01:18:01;;;;;;;;;;;30.00;98.50;;;;;;5020672;28;19913;-66
2024/01/24 01:20:28;;;;;;;;;;;30.00;97.70;;;;;;5022226;28;19921;-65
2024/01/24 01:22:54;;;;;;;;;;;30.20;98.60;;;;;;5022977;28;19971;-66
2024/01/24 01:25:21;;;;;;;;;;;30.40;98.10;;;;;;5023749;28;19925;-64
2024/01/24 01:27:48;;;;;;;;;;;30.40;98.40;;;;;;5028922;28;19921;-68
2024/01/24 01:30:14;;;;;;;;;;;30.60;97.80;;;;;;5027959;28;19913;-68
2024/01/24 01:32:41;;;;;;;;;;;30.70;98.00;;;;;;5024148;28;19909;-69
2024/01/24 01:35:08;;;;;;;;;;;30.90;97.60;;;;;;5015244;28;20326;-70
2024/01/24 01:37:35;;;;;;;;;;;31.00;97.40;;;;;;5031604;28;20353;-64
2024/01/24 01:40:01;;;;;;;;;;;31.10;97.30;;;;;;5030777;28;19921;-68
2024/01/24 01:42:28;;;;;;;;;;;31.30;97.20;;;;;;5021891;28;19936;-65
2024/01/24 01:44:54;;;;;;;;;;;31.50;96.60;;;;;;5025925;28;20611;-65
2024/01/24 01:47:21;;;;;;;;;;;31.70;96.30;;;;;;5031463;28;19917;-66
2024/01/24 01:49:48;;;;;;;;;;;32.00;96.60;;;;;;5031186;28;19913;-68
2024/01/24 01:52:16;;;;;;;;;;;32.10;96.30;;;;;;5030260;28;19936;-66
2024/01/24 01:54:43;;;;;;;;;;;32.40;96.20;;;;;;5031738;28;20383;-66
2024/01/24 01:57:11;;;;;;;;;;;32.40;96.00;;;;;;5028054;28;19921;-67
2024/01/24 01:59:47;;;;;;;;;;;32.50;95.00;;;;;;5016275;28;19917;-65
2024/01/24 02:02:14;;;;;;;;;;;32.50;95.40;;;;;;5018736;28;20384;-70
2024/01/24 02:04:41;;;;;;;;;;;32.30;94.60;;;;;;5029475;28;19936;-63
2024/01/24 02:07:08;;;;;;;;;;;32.20;95.00;;;;;;5015973;28;19971;-73
2024/01/24 02:09:34;;;;;;;;;;;32.20;95.10;;;;;;5025463;28;19920;-70
2024/01/24 02:12:01;;;;;;;;;;;32.20;95.40;;;;;;5015940;28;19913;-68
2024/01/24 02:14:28;;;;;;;;;;;32.10;94.90;;;;;;4998345;28;19959;-68
2024/01/24 02:16:55;;;;;;;;;;;31.90;95.10;;;;;;5016041;28;19917;-66
2024/01/24 02:19:22;;;;;;;;;;;31.60;94.90;;;;;;5015001;28;19969;-68
2024/01/24 02:21:49;;;;;;;;;;;31.40;95.50;;;;;;5002021;28;19914;-64
2024/01/24 02:24:16;;;;;;;;;;;31.00;95.70;;;;;;5033203;28;19913;-67
2024/01/24 02:26:43;;;;;;;;;;;30.80;96.20;;;;;;5032999;28;19979;-66
2024/01/24 02:29:11;;;;;;;;;;;30.70;96.50;;;;;;5024901;28;20362;-67
2024/01/24 02:31:38;;;;;;;;;;;30.70;96.50;;;;;;5005389;28;19917;-70
2024/01/24 02:34:05;;;;;;;;;;;30.70;96.60;;;;;;5033673;28;19967;-64
2024/01/24 02:36:32;;;;;;;;;;;30.80;96.50;;;;;;5033569;28;19921;-69
2024/01/24 02:38:58;;;;;;;;;;;30.80;96.50;;;;;;5019978;28;19918;-69
2024/01/24 02:41:25;;;;;;;;;;;30.80;96.50;;;;;;5028063;28;20019;-68
2024/01/24 02:43:52;;;;;;;;;;;30.70;96.40;;;;;;5033621;28;19963;-67
2024/01/24 02:46:19;;;;;;;;;;;30.70;96.70;;;;;;5028090;28;19914;-67
2024/01/24 02:48:45;;;;;;;;;;;30.80;96.90;;;;;;5027288;28;19921;-65
2024/01/24 02:51:12;;;;;;;;;;;30.90;96.70;;;;;;5017871;28;19937;-69
2024/01/24 02:53:39;;;;;;;;;;;31.10;97.00;;;;;;4997427;28;19979;-70
2024/01/24 02:56:05;;;;;;;;;;;31.30;96.70;;;;;;5015315;28;19909;-68
2024/01/24 02:58:32;;;;;;;;;;;31.40;96.20;;;;;;5015071;28;20387;-71
2024/01/24 03:00:59;;;;;;;;;;;31.40;96.90;;;;;;5015247;28;19918;-70
2024/01/24 03:03:25;;;;;;;;;;;31.70;96.10;;;;;;5015488;28;20020;-70
2024/01/24 03:05:52;;;;;;;;;;;31.90;95.30;;;;;;5023339;28;19917;-69
2024/01/24 03:08:18;;;;;;;;;;;32.40;96.40;;;;;;5023998;28;19920;-71
2024/01/24 03:10:45;;;;;;;;;;;33.30;94.80;;;;;;5022404;28;19971;-70
2024/01/24 03:13:12;;;;;;;;;;;34.10;94.80;;;;;;5031020;28;20373;-66
2024/01/24 03:15:38;;;;;;;;;;;35.10;93.00;;;;;;5013074;28;19917;-69
2024/01/24 03:18:05;;;;;;;;;;;35.80;91.80;;;;;;5017027;28;19944;-71
2024/01/24 03:20:32;;;;;;;;;;;36.50;90.70;;;;;;5023154;28;20020;-69
2024/01/24 03:22:58;;;;;;;;;;;36.00;90.30;;;;;;5034313;28;19971;-69
2024/01/24 03:25:25;;;;;;;;;;;35.20;90.60;;;;;;5020342;28;20362;-73
2024/01/24 03:27:52;;;;;;;;;;;34.10;91.60;;;;;;5014073;28;19925;-67
2024/01/24 03:30:18;;;;;;;;;;;33.50;92.10;;;;;;5014225;28;19964;-65
2024/01/24 03:32:45;;;;;;;;;;;32.60;92.80;;;;;;5014771;28;19910;-71
2024/01/24 03:35:12;;;;;;;;;;;32.20;93.40;;;;;;5016480;28;20004;-72
2024/01/24 03:37:38;;;;;;;;;;;31.70;93.70;;;;;;5033875;28;19909;-71
2024/01/24 03:40:06;;;;;;;;;;;31.40;94.20;;;;;;5033796;28;19917;-68
2024/01/24 03:42:33;;;;;;;;;;;31.10;94.60;;;;;;5034280;28;19936;-68
2024/01/24 03:44:59;;;;;;;;;;;31.00;95.20;;;;;;5034031;28;19916;-65
2024/01/24 03:47:26;;;;;;;;;;;30.90;95.20;;;;;;5033650;28;20314;-73
2024/01/24 03:49:52;;;;;;;;;;;30.80;95.00;;;;;;5033769;28;19913;-65
2024/01/24 03:52:19;;;;;;;;;;;30.70;95.20;;;;;;5032309;28;19913;-68
2024/01/24 03:54:46;;;;;;;;;;;31.10;95.20;;;;;;5023495;28;20362;-68
2024/01/24 03:57:12;;;;;;;;;;;31.60;94.70;;;;;;5014975;28;19918;-71
2024/01/24 03:59:39;;;;;;;;;;;32.00;94.00;;;;;;5029549;28;19917;-69
2024/01/24 04:02:06;;;;;;;;;;;32.10;93.90;;;;;;5031601;28;19971;-68
2024/01/24 04:04:32;;;;;;;;;;;31.90;93.70;;;;;;5031379;28;19952;-69
2024/01/24 04:06:59;;;;;;;;;;;31.50;94.30;;;;;;5027036;28;19967;-67
2024/01/24 04:09:25;;;;;;;;;;;31.30;94.70;;;;;;5028820;28;19913;-69
2024/01/24 04:11:52;;;;;;;;;;;31.20;94.80;;;;;;5029214;28;19921;-70
2024/01/24 04:14:19;;;;;;;;;;;30.90;95.00;;;;;;5014865;28;19920;-67
2024/01/24 04:16:45;;;;;;;;;;;30.70;95.50;;;;;;5013736;28;19952;-71
2024/01/24 04:19:12;;;;;;;;;;;30.50;96.00;;;;;;5028118;28;19913;-70
2024/01/24 04:21:45;;;;;;;;;;;30.40;96.00;;;;;;5020496;28;19980;-68
2024/01/24 04:24:12;;;;;;;;;;;30.40;96.30;;;;;;5033073;28;19959;-68
2024/01/24 04:26:38;;;;;;;;;;;30.60;95.90;;;;;;5031259;28;20366;-69
2024/01/24 04:29:05;;;;;;;;;;;31.50;96.20;;;;;;5021065;28;19921;-71
2024/01/24 04:31:32;;;;;;;;;;;33.50;95.00;;;;;;5023935;28;19952;-70
2024/01/24 04:33:58;;;;;;;;;;;35.10;92.80;;;;;;5016673;28;19929;-62
2024/01/24 04:36:25;;;;;;;;;;;36.40;91.20;;;;;;5023324;28;20381;-71
2024/01/24 04:38:51;;;;;;;;;;;36.30;90.00;;;;;;5021703;28;19918;-73
2024/01/24 04:41:18;;;;;;;;;;;35.80;90.20;;;;;;5030654;28;19921;-70
2024/01/24 04:43:45;;;;;;;;;;;34.80;91.10;;;;;;5023797;28;19913;-71
2024/01/24 04:46:15;;;;;;;;;;;33.90;91.80;;;;;;5013099;28;20320;-69
2024/01/24 04:48:42;;;;;;;;;;;33.20;92.40;;;;;;5019782;28;20358;-70
2024/01/24 04:51:08;;;;;;;;;;;32.40;93.30;;;;;;5032319;28;19941;-69
2024/01/24 04:53:35;;;;;;;;;;;31.80;94.10;;;;;;5024796;28;19957;-68
2024/01/24 04:56:02;;;;;;;;;;;31.40;94.80;;;;;;5013203;28;19917;-71
2024/01/24 04:58:29;;;;;;;;;;;31.00;95.40;;;;;;5018203;28;20015;-69
2024/01/24 05:00:55;;;;;;;;;;;30.70;95.70;;;;;;5029182;28;19923;-69
2024/01/24 05:03:22;;;;;;;;;;;30.50;96.10;;;;;;5032008;28;20006;-67
2024/01/24 05:05:49;;;;;;;;;;;30.30;96.40;;;;;;5031522;28;19955;-66
2024/01/24 05:08:15;;;;;;;;;;;30.20;96.90;;;;;;5019054;28;19913;-66
2024/01/24 05:10:42;;;;;;;;;;;30.00;97.00;;;;;;5027085;28;19917;-67
2024/01/24 05:13:08;;;;;;;;;;;29.90;97.40;;;;;;5026386;28;19913;-67
2024/01/24 05:15:35;;;;;;;;;;;29.80;97.50;;;;;;5015135;28;19921;-69
2024/01/24 05:18:02;;;;;;;;;;;29.70;97.70;;;;;;5022969;28;19916;-65
2024/01/24 05:20:28;;;;;;;;;;;29.50;97.90;;;;;;5029374;28;19929;-68
2024/01/24 05:22:55;;;;;;;;;;;29.40;98.20;;;;;;5029935;28;19920;-66
2024/01/24 05:25:22;;;;;;;;;;;29.20;98.60;;;;;;5026849;28;19913;-64
2024/01/24 05:27:48;;;;;;;;;;;29.00;98.90;;;;;;5026813;28;19921;-66
2024/01/24 05:30:15;;;;;;;;;;;28.90;99.20;;;;;;5023257;28;19917;-65
2024/01/24 05:32:42;;;;;;;;;;;28.80;99.40;;;;;;5026290;28;20008;-66
2024/01/24 05:35:08;;;;;;;;;;;28.80;99.80;;;;;;5009898;28;20357;-65
2024/01/24 05:37:35;;;;;;;;;;;28.80;99.90;;;;;;5015577;28;19917;-65
2024/01/24 05:40:01;;;;;;;;;;;28.70;99.90;;;;;;5029595;28;19913;-71
2024/01/24 05:42:28;;;;;;;;;;;28.70;99.90;;;;;;5027885;28;19913;-65
2024/01/24 05:44:55;;;;;;;;;;;28.70;99.90;;;;;;5019203;28;19913;-71
2024/01/24 05:47:21;;;;;;;;;;;28.80;99.90;;;;;;5016856;28;19971;-67
2024/01/24 05:49:48;;;;;;;;;;;28.80;99.90;;;;;;5025772;28;19925;-65
2024/01/24 05:52:14;;;;;;;;;;;28.90;99.90;;;;;;5015122;28;19914;-69
2024/01/24 05:54:41;;;;;;;;;;;28.90;99.90;;;;;;5015037;28;19914;-67
2024/01/24 05:57:08;;;;;;;;;;;28.80;99.90;;;;;;5021270;28;19913;-67
2024/01/24 05:59:34;;;;;;;;;;;28.90;99.90;;;;;;5027475;28;19917;-71
2024/01/24 06:02:01;;;;;;;;;;;28.90;99.90;;;;;;5016019;28;19920;-69
2024/01/24 06:04:27;;;;;;;;;;;28.80;99.90;;;;;;5017534;28;19917;-67
2024/01/24 06:06:54;;;;;;;;;;;28.70;99.90;;;;;;5028064;28;19913;-74
2024/01/24 06:09:22;;;;;;;;;;;28.70;99.90;;;;;;5026450;28;20018;-77
2024/01/24 06:11:48;;;;;;;;;;;28.70;99.90;;;;;;5028994;28;19917;-74
2024/01/24 06:14:15;;;;;;;;;;;28.80;99.90;;;;;;5029322;28;19932;-71
2024/01/24 06:16:42;;;;;;;;;;;28.80;99.90;;;;;;5028030;28;20407;-72
2024/01/24 06:19:08;;;;;;;;;;;29.00;99.90;;;;;;5024101;28;19913;-74
2024/01/24 06:21:35;;;;;;;;;;;29.00;99.90;;;;;;5029336;28;19933;-74
2024/01/24 06:24:01;;;;;;;;;;;29.10;99.90;;;;;;5029078;28;19967;-74
2024/01/24 06:26:28;;;;;;;;;;;29.10;99.90;;;;;;5026063;28;20345;-74
2024/01/24 06:28:56;;;;;;;;;;;29.20;99.90;;;;;;5019306;28;19944;-73
2024/01/24 06:31:23;;;;;;;;;;;29.30;99.90;;;;;;5028793;28;20004;-73
2024/01/24 06:33:50;;;;;;;;;;;29.30;99.90;;;;;;5023842;28;19964;-72
2024/01/24 06:36:17;;;;;;;;;;;29.40;99.90;;;;;;5013368;28;20369;-71
2024/01/24 06:38:43;;;;;;;;;;;29.40;99.90;;;;;;5013037;28;20348;-73
2024/01/24 06:41:11;;;;;;;;;;;29.50;99.90;;;;;;5024403;28;19921;-74
2024/01/24 06:43:40;;;;;;;;;;;29.60;99.90;;;;;;5019895;28;19914;-69
2024/01/24 06:46:08;;;;;;;;;;;29.80;99.90;;;;;;5027593;28;20353;-74
2024/01/24 06:48:35;;;;;;;;;;;29.90;99.90;;;;;;5031300;28;21131;-70
2024/01/24 06:51:01;;;;;;;;;;;29.90;99.90;;;;;;5031520;28;19913;-76
2024/01/24 06:53:28;;;;;;;;;;;30.00;99.90;;;;;;5031647;28;20255;-73
2024/01/24 06:55:56;;;;;;;;;;;30.00;99.90;;;;;;5028576;28;19913;-74
2024/01/24 06:58:22;;;;;;;;;;;30.00;99.90;;;;;;5029740;28;19924;-74
2024/01/24 07:00:49;;;;;;;;;;;29.90;99.90;;;;;;5017578;28;19921;-72
2024/01/24 07:03:16;;;;;;;;;;;29.90;99.90;;;;;;5016163;28;19913;-73
2024/01/24 07:05:43;;;;;;;;;;;29.80;99.90;;;;;;5017378;28;19913;-73
2024/01/24 07:08:10;;;;;;;;;;;29.80;99.90;;;;;;5032854;28;19936;-74
2024/01/24 07:10:37;;;;;;;;;;;29.70;99.90;;;;;;5031386;28;19929;-73
2024/01/24 07:13:05;;;;;;;;;;;29.60;99.90;;;;;;5032107;28;19913;-75
2024/01/24 07:15:31;;;;;;;;;;;29.60;99.90;;;;;;5026025;28;20000;-71
2024/01/24 07:17:59;;;;;;;;;;;29.70;99.90;;;;;;5032632;28;19921;-73
2024/01/24 07:20:25;;;;;;;;;;;29.80;99.90;;;;;;5029136;28;19921;-71
2024/01/24 07:22:52;;;;;;;;;;;29.90;99.90;;;;;;5030942;28;19917;-71
2024/01/24 07:25:19;;;;;;;;;;;30.00;99.90;;;;;;5028822;28;19913;-71
2024/01/24 07:27:46;;;;;;;;;;;30.10;99.90;;;;;;5014070;28;19928;-65
2024/01/24 07:30:13;;;;;;;;;;;30.10;99.90;;;;;;5028168;28;19959;-68
2024/01/24 07:32:40;;;;;;;;;;;30.10;99.90;;;;;;5015411;28;19917;-66
2024/01/24 07:35:09;;;;;;;;;;;30.10;99.90;;;;;;5018671;28;19917;-72
2024/01/24 07:37:35;;;;;;;;;;;30.00;99.90;;;;;;5031969;28;20455;-71
2024/01/24 07:40:02;;;;;;;;;;;29.90;99.90;;;;;;5019646;28;19976;-66
2024/01/24 07:42:32;;;;;;;;;;;29.80;99.90;;;;;;5014891;28;19918;-67
2024/01/24 07:44:59;;;;;;;;;;;29.70;99.90;;;;;;4995842;28;19917;-68
2024/01/24 07:47:25;;;;;;;;;;;29.60;99.90;;;;;;5013998;28;19910;-65
2024/01/24 07:49:53;;;;;;;;;;;29.40;99.90;;;;;;5029186;28;19951;-67
2024/01/24 07:52:19;;;;;;;;;;;29.30;99.90;;;;;;5033617;28;19931;-68
2024/01/24 07:54:46;;;;;;;;;;;29.20;99.90;;;;;;5033277;28;19916;-66
2024/01/24 07:57:12;;;;;;;;;;;29.10;99.90;;;;;;5033467;28;19913;-64
2024/01/24 07:59:39;;;;;;;;;;;29.10;99.90;;;;;;5033318;28;20297;-72
2024/01/24 08:02:06;;;;;;;;;;;29.00;99.90;;;;;;5033041;28;19928;-69
2024/01/24 08:04:33;;;;;;;;;;;28.90;99.90;;;;;;5032792;28;19960;-70
2024/01/24 08:07:00;;;;;;;;;;;28.90;99.90;;;;;;5033297;28;20324;-71
2024/01/24 08:09:26;;;;;;;;;;;28.90;99.90;;;;;;5033131;28;20400;-67
2024/01/24 08:11:53;;;;;;;;;;;29.00;99.90;;;;;;5033479;28;19913;-67
2024/01/24 08:14:20;;;;;;;;;;;28.90;99.90;;;;;;5015258;28;20395;-66
2024/01/24 08:17:00;;;;;;;;;;;28.80;99.90;;;;;;5024751;28;20570;-69
2024/01/24 08:19:26;;;;;;;;;;;28.70;99.90;;;;;;5024934;28;19909;-74
2024/01/24 08:21:53;;;;;;;;;;;28.60;99.90;;;;;;5033304;28;19917;-70
2024/01/24 08:24:19;;;;;;;;;;;28.50;99.90;;;;;;5032418;28;19913;-71
2024/01/24 08:26:46;;;;;;;;;;;28.40;99.90;;;;;;5032386;28;19921;-71
2024/01/24 08:29:13;;;;;;;;;;;28.30;99.90;;;;;;5033087;28;19913;-68
2024/01/24 08:31:39;;;;;;;;;;;28.20;99.90;;;;;;5016483;28;19921;-74
2024/01/24 08:34:07;;;;;;;;;;;28.10;99.90;;;;;;5013483;28;19909;-70
2024/01/24 08:36:39;;;;;;;;;;;28.00;99.90;;;;;;5012014;28;21388;-69
2024/01/24 08:39:06;;;;;;;;;;;28.00;99.90;;;;;;5013405;28;19940;-72
2024/01/24 08:41:35;;;;;;;;;;;27.90;99.90;;;;;;5013394;28;19921;-73
2024/01/24 08:44:02;;;;;;;;;;;27.80;99.90;;;;;;5018074;28;20261;-69
2024/01/24 08:46:29;;;;;;;;;;;27.70;99.90;;;;;;5030545;28;19913;-70
2024/01/24 08:48:55;;;;;;;;;;;27.60;99.90;;;;;;5022174;28;19909;-66
2024/01/24 08:51:24;;;;;;;;;;;27.50;99.90;;;;;;5011848;28;20365;-68
2024/01/24 08:53:51;;;;;;;;;;;27.40;99.90;;;;;;5012304;28;20357;-68
2024/01/24 08:56:18;;;;;;;;;;;27.40;99.90;;;;;;5027298;28;19910;-70
2024/01/24 08:58:45;;;;;;;;;;;27.20;99.90;;;;;;5032356;28;19963;-70
2024/01/24 09:01:11;;;;;;;;;;;27.10;99.90;;;;;;5032370;28;19920;-70
2024/01/24 09:03:38;;;;;;;;;;;27.00;99.90;;;;;;5032054;28;19967;-67
2024/01/24 09:06:05;;;;;;;;;;;27.00;99.90;;;;;;5025401;28;20553;-66
2024/01/24 09:08:32;;;;;;;;;;;26.90;99.90;;;;;;5027360;28;19920;-67
2024/01/24 09:10:59;;;;;;;;;;;26.80;99.90;;;;;;5014190;28;20270;-70
2024/01/24 09:13:25;;;;;;;;;;;26.70;99.90;;;;;;5012601;28;19905;-67
2024/01/24 09:15:52;;;;;;;;;;;26.60;99.90;;;;;;5019858;28;20011;-65
2024/01/24 09:18:19;;;;;;;;;;;26.60;99.90;;;;;;5031314;28;19917;-68
2024/01/24 09:20:46;;;;;;;;;;;26.50;99.90;;;;;;5014300;28;19968;-70
2024/01/24 09:23:13;;;;;;;;;;;26.50;99.90;;;;;;5012439;28;20003;-70
2024/01/24 09:25:39;;;;;;;;;;;26.40;99.90;;;;;;5011994;28;19963;-66
2024/01/24 09:28:08;;;;;;;;;;;26.40;99.90;;;;;;5011830;28;19944;-66
2024/01/24 09:30:35;;;;;;;;;;;26.30;99.90;;;;;;5027093;28;19995;-70
2024/01/24 09:33:03;;;;;;;;;;;26.30;99.90;;;;;;5013851;28;20333;-68
2024/01/24 09:35:30;;;;;;;;;;;26.20;99.90;;;;;;5011685;28;19922;-66
2024/01/24 09:37:57;;;;;;;;;;;26.20;99.90;;;;;;5011767;28;20398;-67
2024/01/24 09:40:24;;;;;;;;;;;26.10;99.90;;;;;;5025418;28;19917;-68
2024/01/24 09:42:51;;;;;;;;;;;26.10;99.90;;;;;;5017775;28;19909;-67
2024/01/24 09:45:18;;;;;;;;;;;26.20;99.90;;;;;;5010337;28;20395;-67
2024/01/24 09:47:48;;;;;;;;;;;26.20;99.90;;;;;;5029276;28;20005;-66
2024/01/24 09:50:15;;;;;;;;;;;26.20;99.90;;;;;;5030927;28;20316;-67
2024/01/24 09:52:42;;;;;;;;;;;26.10;99.90;;;;;;5015490;28;19913;-69
2024/01/24 09:55:09;;;;;;;;;;;26.10;99.90;;;;;;5024268;28;19910;-63
2024/01/24 09:57:36;;;;;;;;;;;26.10;99.90;;;;;;5029922;28;20254;-65
2024/01/24 10:00:04;;;;;;;;;;;26.10;99.90;;;;;;5030926;28;19913;-66
2024/01/24 10:02:30;;;;;;;;;;;26.00;99.90;;;;;;5030794;28;19971;-68
2024/01/24 10:05:00;;;;;;;;;;;26.00;99.90;;;;;;5016613;28;19909;-66
2024/01/24 10:07:27;;;;;;;;;;;26.00;99.90;;;;;;5028252;28;20285;-68
2024/01/24 10:10:15;;;;;;;;;;;26.00;99.90;;;;;;5031013;28;19909;-65
2024/01/24 10:12:42;;;;;;;;;;;26.00;99.90;;;;;;5030902;28;19913;-69
2024/01/24 10:15:09;;;;;;;;;;;26.00;99.90;;;;;;5013827;28;19917;-68
2024/01/24 10:17:36;;;;;;;;;;;26.10;99.90;;;;;;5012936;28;20419;-69
2024/01/24 10:20:06;;;;;;;;;;;26.10;99.90;;;;;;5025935;28;20455;-66
2024/01/24 10:22:33;;;;;;;;;;;26.00;99.90;;;;;;5034892;28;20003;-66
2024/01/24 10:25:00;;;;;;;;;;;26.10;99.90;;;;;;5030828;28;20255;-67
2024/01/24 10:27:26;;;;;;;;;;;26.20;99.90;;;;;;5014716;28;19922;-66
2024/01/24 10:29:53;;;;;;;;;;;26.20;99.90;;;;;;5024280;28;19913;-67
2024/01/24 10:32:20;;;;;;;;;;;26.20;99.90;;;;;;5017064;28;20015;-67
2024/01/24 10:34:49;;;;;;;;;;;26.30;99.90;;;;;;5034499;28;19936;-68
2024/01/24 10:37:18;;;;;;;;;;;26.30;99.90;;;;;;5016913;28;19916;-69
2024/01/24 10:39:45;;;;;;;;;;;26.30;99.90;;;;;;5023431;28;19952;-70
2024/01/24 10:42:17;;;;;;;;;;;26.20;99.90;;;;;;5034344;28;19917;-69
2024/01/24 10:44:45;;;;;;;;;;;26.20;99.90;;;;;;5034503;28;19913;-70
2024/01/24 10:47:11;;;;;;;;;;;26.20;99.90;;;;;;5017075;28;19913;-65
2024/01/24 10:49:39;;;;;;;;;;;26.20;99.90;;;;;;5019418;28;19917;-71
2024/01/24 10:52:06;;;;;;;;;;;26.20;99.90;;;;;;5019965;28;20358;-69
2024/01/24 10:54:34;;;;;;;;;;;26.20;99.90;;;;;;5015324;28;19964;-68
2024/01/24 10:57:02;;;;;;;;;;;26.20;99.90;;;;;;5032641;28;19913;-69
2024/01/24 10:59:33;;;;;;;;;;;26.20;99.90;;;;;;5029599;28;19991;-67
2024/01/24 11:02:00;;;;;;;;;;;26.30;99.90;;;;;;5023724;28;20384;-68
2024/01/24 11:04:27;;;;;;;;;;;26.20;99.90;;;;;;5033308;28;19917;-70
2024/01/24 11:06:59;;;;;;;;;;;26.30;99.90;;;;;;5019375;28;19917;-72
2024/01/24 11:09:33;;;;;;;;;;;26.30;99.90;;;;;;5014150;28;19913;-66
2024/01/24 11:12:01;;;;;;;;;;;26.20;99.90;;;;;;5014348;28;19910;-66
2024/01/24 11:14:34;;;;;;;;;;;26.30;99.90;;;;;;5024909;28;19917;-70
2024/01/24 11:17:02;;;;;;;;;;;26.30;99.90;;;;;;5027941;28;19916;-68
2024/01/24 11:19:30;;;;;;;;;;;26.20;99.90;;;;;;5031515;28;19913;-65
2024/01/24 11:22:01;;;;;;;;;;;26.20;99.90;;;;;;5012356;28;20294;-65
2024/01/24 11:24:40;;;;;;;;;;;26.20;99.90;;;;;;5013842;28;19940;-69
2024/01/24 11:27:25;;;;;;;;;;;26.20;99.90;;;;;;5028521;28;19921;-67
2024/01/24 11:29:52;;;;;;;;;;;26.10;99.90;;;;;;5033293;28;19945;-67
2024/01/24 11:32:37;;;;;;;;;;;26.00;99.90;;;;;;5033169;28;19916;-68
2024/01/24 11:35:26;;;;;;;;;;;26.00;99.90;;;;;;5032388;28;19914;-68
2024/01/24 11:37:59;;;;;;;;;;;26.00;99.90;;;;;;5000943;28;19910;-66
2024/01/24 11:40:25;;;;;;;;;;;26.10;99.90;;;;;;5023362;28;19924;-71
2024/01/24 11:42:55;;;;;;;;;;;26.10;99.90;;;;;;5033366;28;19975;-72
2024/01/24 11:45:24;;;;;;;;;;;26.00;99.90;;;;;;5009369;28;19909;-67
2024/01/24 11:47:52;;;;;;;;;;;26.10;99.90;;;;;;5020097;28;19913;-70
2024/01/24 11:50:19;;;;;;;;;;;26.10;99.90;;;;;;5006107;28;19910;-72
2024/01/24 11:52:46;;;;;;;;;;;26.10;99.90;;;;;;5022057;28;19956;-71
2024/01/24 11:55:13;;;;;;;;;;;26.10;99.90;;;;;;5022743;28;19963;-69
2024/01/24 11:57:40;;;;;;;;;;;26.10;99.90;;;;;;5021125;28;20689;-71
2024/01/24 12:00:08;;;;;;;;;;;26.10;99.90;;;;;;5021836;28;19957;-66
2024/01/24 12:02:36;;;;;;;;;;;26.10;99.90;;;;;;5021623;28;19921;-70
2024/01/24 12:05:04;;;;;;;;;;;26.10;99.90;;;;;;5023423;28;19952;-66
2024/01/24 12:07:31;;;;;;;;;;;26.10;99.90;;;;;;5023429;28;19964;-68
2024/01/24 12:09:58;;;;;;;;;;;26.10;99.90;;;;;;5021971;28;19909;-67
2024/01/24 12:12:24;;;;;;;;;;;26.10;99.90;;;;;;5020924;28;19967;-67
2024/01/24 12:14:52;;;;;;;;;;;26.10;99.90;;;;;;5023375;28;19909;-69
2024/01/24 12:17:18;;;;;;;;;;;26.10;99.90;;;;;;5021780;28;19913;-70
2024/01/24 12:19:45;;;;;;;;;;;26.10;99.90;;;;;;5022560;28;20277;-67
2024/01/24 12:22:13;;;;;;;;;;;26.10;99.90;;;;;;5021111;28;19918;-65
2024/01/24 12:24:43;;;;;;;;;;;26.10;99.90;;;;;;5022507;28;19917;-69
2024/01/24 12:27:10;;;;;;;;;;;26.10;99.90;;;;;;5023515;28;19928;-69
2024/01/24 12:29:36;;;;;;;;;;;26.10;99.90;;;;;;5022057;28;19910;-69
2024/01/24 12:32:08;;;;;;;;;;;26.10;99.90;;;;;;5023302;28;19914;-66
2024/01/24 12:34:35;;;;;;;;;;;26.10;99.90;;;;;;5023841;28;19909;-69
2024/01/24 12:37:01;;;;;;;;;;;26.00;99.90;;;;;;5025451;28;19952;-71
2024/01/24 12:39:30;;;;;;;;;;;26.00;99.90;;;;;;5023070;28;20016;-68
2024/01/24 12:41:56;;;;;;;;;;;26.00;99.90;;;;;;5021441;28;19924;-70
2024/01/24 12:44:23;;;;;;;;;;;26.00;99.90;;;;;;5022159;28;19916;-66
2024/01/24 12:46:55;;;;;;;;;;;26.00;99.90;;;;;;5025927;28;19920;-65
2024/01/24 12:49:22;;;;;;;;;;;26.00;99.90;;;;;;5022238;28;19917;-68
2024/01/24 12:51:48;;;;;;;;;;;26.00;99.90;;;;;;5021224;28;20388;-71
2024/01/24 12:54:15;;;;;;;;;;;26.00;99.90;;;;;;5021144;28;19920;-69
2024/01/24 12:56:41;;;;;;;;;;;26.10;99.90;;;;;;5021266;28;19913;-68
2024/01/24 12:59:08;;;;;;;;;;;26.10;99.90;;;;;;5023691;28;20362;-69
2024/01/24 13:01:35;;;;;;;;;;;26.10;99.90;;;;;;5020602;28;20017;-70
2024/01/24 13:04:01;;;;;;;;;;;26.10;99.90;;;;;;5021366;28;19955;-72
2024/01/24 13:06:28;;;;;;;;;;;26.10;99.90;;;;;;5023838;28;20345;-70
2024/01/24 13:08:55;;;;;;;;;;;26.10;99.90;;;;;;5003428;28;19906;-71
2024/01/24 13:11:21;;;;;;;;;;;26.10;99.90;;;;;;5022632;28;19945;-70
2024/01/24 13:13:49;;;;;;;;;;;26.00;99.90;;;;;;5023034;28;19909;-69
2024/01/24 13:16:16;;;;;;;;;;;26.10;99.90;;;;;;5021185;28;19917;-69
2024/01/24 13:18:42;;;;;;;;;;;26.00;99.90;;;;;;5022862;28;19913;-70
2024/01/24 13:21:09;;;;;;;;;;;26.00;99.90;;;;;;5021086;28;19916;-71
2024/01/24 13:23:35;;;;;;;;;;;26.10;99.90;;;;;;5021076;28;20337;-70
2024/01/24 13:26:02;;;;;;;;;;;26.00;99.90;;;;;;5022034;28;19909;-71
2024/01/24 13:28:29;;;;;;;;;;;26.10;99.90;;;;;;5023412;28;20019;-70
2024/01/24 13:30:55;;;;;;;;;;;26.00;99.90;;;;;;5021490;28;20277;-67
2024/01/24 13:33:22;;;;;;;;;;;26.00;99.90;;;;;;5023546;28;19913;-70
2024/01/24 13:35:49;;;;;;;;;;;26.00;99.90;;;;;;5022645;28;19972;-68
2024/01/24 13:38:15;;;;;;;;;;;26.00;99.90;;;;;;5021228;28;19913;-70
2024/01/24 13:40:42;;;;;;;;;;;26.00;99.90;;;;;;5020210;28;19974;-70
2024/01/24 13:43:08;;;;;;;;;;;25.90;99.90;;;;;;5025278;28;19916;-72
2024/01/24 13:45:35;;;;;;;;;;;25.90;99.90;;;;;;5032246;28;19916;-71
2024/01/24 13:48:05;;;;;;;;;;;25.90;99.90;;;;;;5032024;28;19913;-71
2024/01/24 13:50:35;;;;;;;;;;;25.90;99.90;;;;;;5032706;28;19909;-72
2024/01/24 13:53:02;;;;;;;;;;;25.80;99.90;;;;;;5032523;28;19909;-71
2024/01/24 13:55:28;;;;;;;;;;;25.90;99.90;;;;;;5021542;28;19916;-70
2024/01/24 13:57:59;;;;;;;;;;;25.80;99.90;;;;;;5014912;28;20318;-70
2024/01/24 14:00:25;;;;;;;;;;;25.80;99.90;;;;;;5031995;28;19917;-71
2024/01/24 14:02:53;;;;;;;;;;;25.80;99.90;;;;;;5031973;28;20399;-71
2024/01/24 14:05:20;;;;;;;;;;;25.80;99.90;;;;;;5032464;28;19910;-69
2024/01/24 14:07:47;;;;;;;;;;;25.80;99.90;;;;;;5031914;28;20365;-70
2024/01/24 14:10:13;;;;;;;;;;;25.80;99.90;;;;;;5032096;28;19920;-70
2024/01/24 14:12:40;;;;;;;;;;;25.80;99.90;;;;;;5030896;28;19909;-72
2024/01/24 14:15:07;;;;;;;;;;;25.80;99.90;;;;;;5032186;28;19913;-70
2024/01/24 14:17:33;;;;;;;;;;;25.80;99.90;;;;;;5030907;28;20289;-67